Time;durP1;ratioP1;P1;durP2;ratioP2;P2;SDS_P1;SDS_P2;PMS_P1;PMS_P2;Temp;Humidity;BMP_temperature;BMP_pressure;BME280_temperature;BME280_humidity;BME280_pressure;Samples;Min_cycle;Max_cycle;Signal;HPM_P1;HPM_P2
2022/08/27 00:00:30;;;;;;;1.92;1.48;;;18.30;62.30;;;;;;5025849;28;20026;-91
2022/08/27 00:02:56;;;;;;;5.00;1.77;;;18.30;62.40;;;;;;5019524;28;20037;-93
2022/08/27 00:05:23;;;;;;;1.55;1.27;;;18.30;62.50;;;;;;4989149;28;20033;-90
2022/08/27 00:07:49;;;;;;;2.63;1.50;;;18.30;62.60;;;;;;5025756;28;20049;-89
2022/08/27 00:10:19;;;;;;;2.55;1.92;;;18.20;62.50;;;;;;5000769;28;20124;-90
2022/08/27 00:12:47;;;;;;;3.75;1.70;;;18.20;62.60;;;;;;5007063;28;20029;-90
2022/08/27 00:15:14;;;;;;;3.58;1.40;;;18.20;62.60;;;;;;5024861;28;20039;-91
2022/08/27 00:17:42;;;;;;;2.03;1.42;;;18.10;62.50;;;;;;5023912;28;20021;-92
2022/08/27 00:20:08;;;;;;;2.45;1.83;;;18.10;62.60;;;;;;5013874;28;20038;-92
2022/08/27 00:22:34;;;;;;;3.20;1.52;;;18.10;62.60;;;;;;5046926;28;20025;-93
2022/08/27 00:25:00;;;;;;;2.47;1.85;;;18.00;62.60;;;;;;4994429;28;20029;-94
2022/08/27 00:27:26;;;;;;;3.28;1.73;;;18.00;62.70;;;;;;5026636;28;20045;-93
2022/08/27 00:29:52;;;;;;;2.20;1.63;;;18.00;62.80;;;;;;5028901;28;20108;-92
2022/08/27 00:32:18;;;;;;;1.83;1.70;;;17.90;62.60;;;;;;5012594;28;20197;-93
2022/08/27 00:34:44;;;;;;;1.67;1.58;;;17.90;62.80;;;;;;4992754;28;20022;-93
2022/08/27 00:37:12;;;;;;;4.13;1.90;;;17.90;62.80;;;;;;5029405;28;20034;-92
2022/08/27 00:39:38;;;;;;;2.28;1.65;;;17.90;62.90;;;;;;5027647;28;20098;-90
2022/08/27 00:42:05;;;;;;;3.08;2.42;;;17.90;63.00;;;;;;5010273;28;20033;-88
2022/08/27 00:44:32;;;;;;;2.95;2.03;;;17.80;62.90;;;;;;5003616;28;20030;-90
2022/08/27 00:47:11;;;;;;;2.30;2.10;;;17.80;62.90;;;;;;5025319;28;20057;-88
2022/08/27 00:49:47;;;;;;;3.20;1.92;;;17.70;62.90;;;;;;5024011;28;20037;-90
2022/08/27 00:52:26;;;;;;;3.78;1.80;;;17.70;63.00;;;;;;5025459;28;20059;-89
2022/08/27 00:55:17;;;;;;;2.10;1.50;;;17.70;63.00;;;;;;5041896;28;20036;-90
2022/08/27 00:57:44;;;;;;;2.25;1.80;;;17.70;63.20;;;;;;5024298;28;20052;-88
2022/08/27 01:00:16;;;;;;;2.60;1.85;;;17.60;62.90;;;;;;5010982;28;20045;-91
2022/08/27 01:02:45;;;;;;;2.10;1.90;;;17.60;63.00;;;;;;5028590;28;20035;-89
2022/08/27 01:05:19;;;;;;;2.40;2.00;;;17.60;63.00;;;;;;5020910;28;20040;-92
2022/08/27 01:07:49;;;;;;;1.88;1.70;;;17.50;62.90;;;;;;5029266;28;20041;-94
2022/08/27 01:10:25;;;;;;;4.25;1.92;;;17.50;63.00;;;;;;5013578;28;20033;-90
2022/08/27 01:12:53;;;;;;;2.38;1.80;;;17.40;63.00;;;;;;5024494;28;20392;-89
2022/08/27 01:15:21;;;;;;;2.17;1.80;;;17.50;63.10;;;;;;4994154;28;20040;-89
2022/08/27 01:17:48;;;;;;;4.85;2.55;;;17.40;63.00;;;;;;5025651;28;20385;-87
2022/08/27 01:20:23;;;;;;;2.03;1.88;;;17.40;63.00;;;;;;5006591;28;20319;-89
2022/08/27 01:23:24;;;;;;;2.67;1.80;;;17.30;63.00;;;;;;5043025;28;20387;-89
2022/08/27 01:25:50;;;;;;;2.25;1.88;;;17.30;63.10;;;;;;5025631;28;20488;-88
2022/08/27 01:28:16;;;;;;;2.90;2.08;;;17.30;63.00;;;;;;5025367;28;20110;-90
2022/08/27 01:30:43;;;;;;;1.88;1.77;;;17.20;62.90;;;;;;5006923;28;20017;-88
2022/08/27 01:33:15;;;;;;;2.47;2.08;;;17.20;63.00;;;;;;5009636;28;20115;-87
2022/08/27 01:35:43;;;;;;;2.05;1.90;;;17.20;63.20;;;;;;5023410;28;20036;-89
2022/08/27 01:38:09;;;;;;;2.88;2.58;;;17.10;63.00;;;;;;5025859;28;20116;-88
2022/08/27 01:40:36;;;;;;;2.50;2.03;;;17.10;63.10;;;;;;5027132;28;20512;-88
2022/08/27 01:43:03;;;;;;;3.00;2.13;;;17.10;63.20;;;;;;5009772;28;20034;-90
2022/08/27 01:45:32;;;;;;;2.40;2.20;;;17.10;63.30;;;;;;5025476;28;20033;-89
2022/08/27 01:47:59;;;;;;;3.05;1.98;;;17.00;63.20;;;;;;5026067;28;20050;-89
2022/08/27 01:50:30;;;;;;;3.15;2.20;;;17.00;63.30;;;;;;5010935;28;20021;-88
2022/08/27 01:53:00;;;;;;;2.40;2.20;;;17.00;63.30;;;;;;5027376;28;20070;-87
2022/08/27 01:55:26;;;;;;;4.43;2.25;;;16.90;63.20;;;;;;5013417;28;20029;-90
2022/08/27 01:57:54;;;;;;;2.75;2.22;;;16.90;63.30;;;;;;5014982;28;20432;-92
2022/08/27 02:00:24;;;;;;;2.20;2.05;;;16.90;63.30;;;;;;5014761;28;20029;-90
2022/08/27 02:02:50;;;;;;;2.65;2.22;;;16.90;63.40;;;;;;5032186;28;20121;-91
2022/08/27 02:05:17;;;;;;;2.25;1.95;;;16.80;63.20;;;;;;5014352;28;20043;-89
2022/08/27 02:07:46;;;;;;;2.80;2.25;;;16.80;63.30;;;;;;5009220;28;20492;-88
2022/08/27 02:10:18;;;;;;;2.70;2.50;;;16.80;63.40;;;;;;5027430;28;20037;-89
2022/08/27 02:12:45;;;;;;;2.15;2.05;;;16.80;63.40;;;;;;5027911;28;20056;-88
2022/08/27 02:15:11;;;;;;;2.60;2.25;;;16.70;63.30;;;;;;5028826;28;20025;-88
2022/08/27 02:17:37;;;;;;;1.67;1.58;;;16.70;63.30;;;;;;5027344;28;20078;-88
2022/08/27 02:20:05;;;;;;;2.53;2.17;;;16.70;63.40;;;;;;5029493;28;20334;-89
2022/08/27 02:22:30;;;;;;;3.70;2.17;;;16.70;63.40;;;;;;5028767;28;20029;-89
2022/08/27 02:24:56;;;;;;;2.30;2.10;;;16.70;63.40;;;;;;5015183;28;20064;-89
2022/08/27 02:27:22;;;;;;;1.92;1.80;;;16.70;63.50;;;;;;5012821;28;20111;-88
2022/08/27 02:29:50;;;;;;;2.53;1.80;;;16.60;63.40;;;;;;5013471;28;20033;-87
2022/08/27 02:32:17;;;;;;;2.38;1.95;;;16.60;63.40;;;;;;5013816;28;20040;-88
2022/08/27 02:34:42;;;;;;;3.45;2.00;;;16.60;63.40;;;;;;5010654;28;20479;-88
2022/08/27 02:37:11;;;;;;;2.63;2.28;;;16.50;63.30;;;;;;5039923;28;20017;-89
2022/08/27 02:39:38;;;;;;;2.13;1.50;;;16.50;63.40;;;;;;5043204;28;20068;-88
2022/08/27 02:42:04;;;;;;;2.00;1.75;;;16.50;63.50;;;;;;5015640;28;20037;-87
2022/08/27 02:44:30;;;;;;;2.20;1.58;;;16.40;63.30;;;;;;5031079;28;20053;-89
2022/08/27 02:46:57;;;;;;;1.70;1.60;;;16.40;63.40;;;;;;5017282;28;20085;-92
2022/08/27 02:49:24;;;;;;;2.65;2.35;;;16.40;63.50;;;;;;5038596;28;20314;-91
2022/08/27 02:52:02;;;;;;;1.98;1.77;;;16.30;63.30;;;;;;5032873;28;20045;-92
2022/08/27 02:54:37;;;;;;;1.58;1.48;;;16.30;63.50;;;;;;4996622;28;20048;-91
2022/08/27 02:57:03;;;;;;;1.67;1.45;;;16.30;63.50;;;;;;5026798;28;20544;-89
2022/08/27 02:59:29;;;;;;;1.30;1.20;;;16.30;63.50;;;;;;5028343;28;20045;-92
2022/08/27 03:01:55;;;;;;;1.98;1.67;;;16.20;63.40;;;;;;5012995;28;20465;-90
2022/08/27 03:04:21;;;;;;;1.75;1.10;;;16.20;63.50;;;;;;5028146;28;20092;-91
2022/08/27 03:06:49;;;;;;;1.42;1.33;;;16.20;63.50;;;;;;4997539;28;21074;-92
2022/08/27 03:09:17;;;;;;;1.70;1.58;;;16.10;63.40;;;;;;5009553;28;20037;-93
2022/08/27 03:11:43;;;;;;;1.98;1.30;;;16.10;63.40;;;;;;5027362;28;20024;-91
2022/08/27 03:14:09;;;;;;;1.35;1.25;;;16.10;63.40;;;;;;5010141;28;20029;-91
2022/08/27 03:16:36;;;;;;;1.50;1.38;;;16.10;63.40;;;;;;5026216;28;20044;-91
2022/08/27 03:19:06;;;;;;;1.95;1.50;;;16.10;63.50;;;;;;5024812;28;20029;-89
2022/08/27 03:21:33;;;;;;;2.03;1.65;;;16.00;63.30;;;;;;5025815;28;20055;-91
2022/08/27 03:24:01;;;;;;;1.60;1.50;;;16.00;63.40;;;;;;5025844;28;20090;-91
2022/08/27 03:26:28;;;;;;;2.25;1.70;;;16.00;63.40;;;;;;5011870;28;20017;-92
2022/08/27 03:28:54;;;;;;;1.35;1.25;;;16.00;63.40;;;;;;5030078;28;20508;-94
2022/08/27 03:31:28;;;;;;;1.98;1.58;;;15.90;63.30;;;;;;5014365;28;20132;-93
2022/08/27 03:34:02;;;;;;;1.40;1.30;;;15.90;63.30;;;;;;5028506;28;20532;-94
2022/08/27 03:36:30;;;;;;;3.80;1.50;;;15.90;63.40;;;;;;5025143;28;20487;-92
2022/08/27 03:38:56;;;;;;;3.03;1.40;;;15.80;63.20;;;;;;5027528;28;20344;-94
2022/08/27 03:41:23;;;;;;;2.22;1.27;;;15.80;63.30;;;;;;5023761;28;20021;-95
2022/08/27 03:43:51;;;;;;;1.63;1.27;;;15.80;63.30;;;;;;5013083;28;20045;-91
2022/08/27 03:46:19;;;;;;;1.30;1.17;;;15.80;63.30;;;;;;5027486;28;20021;-89
2022/08/27 03:48:46;;;;;;;1.52;1.42;;;15.70;63.70;;;;;;5026156;28;20038;-90
2022/08/27 03:51:13;;;;;;;1.45;1.35;;;15.70;63.30;;;;;;5042207;28;20029;-89
2022/08/27 03:53:42;;;;;;;2.58;1.80;;;15.70;63.30;;;;;;5026791;28;20472;-90
2022/08/27 03:56:08;;;;;;;1.77;1.67;;;15.60;63.70;;;;;;5025710;28;20036;-89
2022/08/27 03:58:35;;;;;;;1.20;1.10;;;15.60;63.30;;;;;;5024929;28;20026;-90
2022/08/27 04:01:04;;;;;;;1.48;1.30;;;15.60;63.30;;;;;;5024978;28;20025;-89
2022/08/27 04:03:30;;;;;;;2.40;1.27;;;15.50;63.20;;;;;;5023756;28;20467;-90
2022/08/27 04:05:58;;;;;;;1.58;1.48;;;15.50;63.20;;;;;;5026756;28;20105;-89
2022/08/27 04:08:25;;;;;;;2.70;1.40;;;15.50;63.30;;;;;;5026410;28;20030;-89
2022/08/27 04:10:53;;;;;;;1.45;1.23;;;15.50;63.30;;;;;;5008960;28;20110;-91
2022/08/27 04:13:19;;;;;;;1.70;0.90;;;15.50;63.30;;;;;;5021231;28;20030;-89
2022/08/27 04:15:48;;;;;;;2.38;1.60;;;15.50;63.40;;;;;;5010492;28;20067;-89
2022/08/27 04:18:15;;;;;;;1.52;1.30;;;15.40;63.20;;;;;;5022132;28;20021;-89
2022/08/27 04:20:46;;;;;;;1.70;1.30;;;15.40;63.20;;;;;;5026410;28;20028;-90
2022/08/27 04:23:12;;;;;;;1.50;1.40;;;15.40;63.30;;;;;;5025629;28;20032;-92
2022/08/27 04:25:43;;;;;;;1.40;1.15;;;15.40;63.30;;;;;;5026057;28;20087;-91
2022/08/27 04:28:10;;;;;;;1.23;1.13;;;15.40;63.30;;;;;;5024721;28;20033;-91
2022/08/27 04:30:44;;;;;;;1.30;1.10;;;15.40;63.30;;;;;;5024669;28;20461;-88
2022/08/27 04:33:12;;;;;;;1.45;1.35;;;15.30;63.20;;;;;;5022530;28;20025;-88
2022/08/27 04:35:38;;;;;;;1.75;1.30;;;15.30;63.20;;;;;;5025270;28;20045;-90
2022/08/27 04:38:05;;;;;;;3.03;1.60;;;15.30;63.20;;;;;;5025932;28;20075;-89
2022/08/27 04:43:17;;;;;;;1.77;1.50;;;15.20;63.10;;;;;;5021918;28;20045;-92
2022/08/27 04:45:44;;;;;;;1.55;1.27;;;15.20;63.10;;;;;;5025061;28;20021;-91
2022/08/27 04:48:12;;;;;;;1.50;1.40;;;15.20;63.20;;;;;;4994401;28;20559;-87
2022/08/27 04:50:42;;;;;;;1.45;1.35;;;15.10;63.10;;;;;;5025178;28;20418;-91
2022/08/27 04:53:13;;;;;;;1.90;1.15;;;15.10;63.10;;;;;;5026636;28;20045;-87
2022/08/27 04:55:49;;;;;;;1.35;1.20;;;15.10;63.20;;;;;;5026450;28;20119;-90
2022/08/27 04:58:17;;;;;;;2.20;1.30;;;15.10;63.30;;;;;;5007739;28;20038;-91
2022/08/27 05:00:55;;;;;;;1.40;1.30;;;15.00;63.10;;;;;;5009144;28;20426;-91
2022/08/27 05:03:23;;;;;;;1.88;1.40;;;15.00;63.20;;;;;;5022315;28;20087;-86
2022/08/27 05:05:49;;;;;;;1.55;1.45;;;15.00;63.20;;;;;;5025647;28;20041;-89
2022/08/27 05:08:16;;;;;;;1.50;1.40;;;15.00;63.20;;;;;;5029380;28;20036;-90
2022/08/27 05:10:47;;;;;;;1.88;1.33;;;15.00;63.20;;;;;;5027020;28;20115;-86
2022/08/27 05:13:14;;;;;;;1.63;1.52;;;15.00;63.30;;;;;;5025496;28;20043;-88
2022/08/27 05:15:41;;;;;;;1.50;1.40;;;14.90;63.10;;;;;;5029652;28;20652;-86
2022/08/27 05:18:08;;;;;;;1.55;1.45;;;15.00;63.30;;;;;;5025951;28;20036;-89
2022/08/27 05:20:45;;;;;;;1.67;1.58;;;15.00;63.30;;;;;;5025106;28;20025;-89
2022/08/27 05:23:13;;;;;;;1.48;1.30;;;14.90;63.20;;;;;;5027387;28;20033;-86
2022/08/27 05:25:41;;;;;;;3.35;1.90;;;14.90;63.20;;;;;;5028630;28;20344;-87
2022/08/27 05:28:07;;;;;;;1.60;1.50;;;14.90;63.20;;;;;;5028304;28;20497;-89
2022/08/27 05:30:43;;;;;;;1.35;1.25;;;14.90;63.20;;;;;;5044974;28;20037;-89
2022/08/27 05:33:10;;;;;;;1.67;1.50;;;14.90;63.30;;;;;;5029271;28;20242;-88
2022/08/27 05:35:41;;;;;;;2.75;1.40;;;14.90;63.80;;;;;;5027248;28;20484;-88
2022/08/27 05:38:10;;;;;;;;;;;14.80;63.20;;;;;;5008481;28;20365;-87
2022/08/27 05:40:39;;;;;;;1.88;1.42;;;14.90;63.20;;;;;;5010016;28;20308;-87
2022/08/27 05:43:06;;;;;;;1.42;1.30;;;14.90;63.00;;;;;;5022906;28;20377;-88
2022/08/27 05:45:38;;;;;;;2.35;1.48;;;14.90;63.10;;;;;;5008328;28;20037;-90
2022/08/27 05:48:04;;;;;;;2.10;1.63;;;14.80;62.90;;;;;;4993197;28;20469;-90
2022/08/27 05:50:30;;;;;;;1.67;1.58;;;14.90;63.20;;;;;;5028505;28;20033;-93
2022/08/27 05:52:56;;;;;;;2.63;1.73;;;14.90;63.20;;;;;;5009936;28;20147;-89
2022/08/27 05:55:22;;;;;;;1.80;1.70;;;14.90;63.20;;;;;;5027724;28;20117;-92
2022/08/27 05:57:48;;;;;;;1.63;1.52;;;14.90;63.30;;;;;;5028588;28;20033;-94
2022/08/27 06:03:00;;;;;;;2.40;1.50;;;15.10;63.80;;;;;;5031485;28;20033;-92
2022/08/27 06:05:27;;;;;;;2.10;1.90;;;15.10;63.70;;;;;;5012757;28;20089;-91
2022/08/27 06:07:52;;;;;;;1.83;1.73;;;15.20;63.80;;;;;;5027099;28;20037;-93
2022/08/27 06:10:18;;;;;;;2.33;1.85;;;15.30;63.90;;;;;;5026070;28;20026;-91
2022/08/27 06:12:44;;;;;;;2.10;1.90;;;15.30;63.90;;;;;;5010851;28;20034;-91
2022/08/27 06:15:10;;;;;;;2.38;1.88;;;15.40;64.00;;;;;;5022338;28;20351;-91
2022/08/27 06:17:36;;;;;;;2.05;1.85;;;15.50;64.10;;;;;;4992216;28;20061;-91
2022/08/27 06:20:03;;;;;;;2.70;2.50;;;15.60;64.20;;;;;;5009793;28;20033;-91
2022/08/27 06:22:29;;;;;;;4.70;2.15;;;15.70;64.20;;;;;;5011401;28;20033;-93
2022/08/27 06:24:56;;;;;;;2.50;2.30;;;15.80;64.20;;;;;;5006218;28;20021;-85
2022/08/27 06:27:21;;;;;;;2.50;2.05;;;16.00;64.40;;;;;;5024076;28;20131;-88
2022/08/27 06:29:47;;;;;;;2.50;2.30;;;16.20;64.40;;;;;;4990806;28;20101;-85
2022/08/27 06:32:15;;;;;;;2.17;2.00;;;16.40;64.30;;;;;;5024649;28;20060;-88
2022/08/27 06:34:41;;;;;;;3.22;3.00;;;16.60;64.20;;;;;;4991498;28;20037;-87
2022/08/27 06:37:08;;;;;;;5.15;2.95;;;16.90;64.50;;;;;;5008661;28;20116;-81
2022/08/27 06:39:37;;;;;;;2.92;2.30;;;17.00;64.70;;;;;;5024452;28;20029;-81
2022/08/27 06:42:02;;;;;;;3.00;2.40;;;17.30;65.30;;;;;;4978160;28;20048;-81
2022/08/27 06:44:32;;;;;;;6.00;3.08;;;17.60;65.50;;;;;;4988199;28;20033;-83
2022/08/27 06:46:58;;;;;;;3.70;3.40;;;17.70;65.40;;;;;;5005791;28;20049;-80
2022/08/27 06:49:24;;;;;;;4.03;3.20;;;18.00;65.50;;;;;;5040535;28;20033;-82
2022/08/27 06:51:50;;;;;;;3.45;2.97;;;18.20;65.50;;;;;;5024002;28;20395;-84
2022/08/27 06:54:18;;;;;;;4.70;3.85;;;18.30;65.30;;;;;;4996815;28;20404;-80
2022/08/27 06:56:44;;;;;;;3.88;3.22;;;18.50;65.30;;;;;;5044698;28;20093;-84
2022/08/27 06:59:14;;;;;;;5.05;4.50;;;18.70;65.50;;;;;;5044811;28;20099;-87
2022/08/27 07:01:43;;;;;;;4.80;4.30;;;18.90;65.60;;;;;;5046371;28;20013;-88
2022/08/27 07:04:12;;;;;;;5.55;3.38;;;19.10;65.70;;;;;;5010993;28;20049;-83
2022/08/27 07:06:40;;;;;;;5.93;4.07;;;19.30;65.70;;;;;;5044822;28;20056;-83
2022/08/27 07:09:07;;;;;;;7.55;4.88;;;19.40;65.40;;;;;;5057051;28;20049;-85
2022/08/27 07:11:34;;;;;;;7.03;5.05;;;19.60;65.30;;;;;;5038548;28;20037;-82
2022/08/27 07:14:01;;;;;;;5.88;4.57;;;19.70;65.20;;;;;;5012356;28;20076;-83
2022/08/27 07:16:28;;;;;;;5.97;4.63;;;19.80;65.10;;;;;;5024042;28;20044;-85
2022/08/27 07:18:56;;;;;;;6.50;4.90;;;19.90;65.10;;;;;;5009437;28;20021;-87
2022/08/27 07:21:23;;;;;;;6.80;6.10;;;20.00;65.00;;;;;;5026874;28;20025;-86
2022/08/27 07:23:52;;;;;;;8.00;6.18;;;20.10;65.00;;;;;;5026497;28;20018;-88
2022/08/27 07:26:20;;;;;;;9.93;8.15;;;20.10;64.80;;;;;;5012566;28;20500;-88
2022/08/27 07:28:48;;;;;;;7.03;6.35;;;20.20;64.90;;;;;;5026916;28;20432;-88
2022/08/27 07:31:16;;;;;;;8.90;7.22;;;20.10;64.70;;;;;;5021652;28;20407;-87
2022/08/27 07:33:45;;;;;;;8.70;7.05;;;20.20;64.80;;;;;;5005989;28;20052;-87
2022/08/27 07:36:12;;;;;;;10.18;7.85;;;20.30;64.90;;;;;;5008385;28;20564;-84
2022/08/27 07:38:38;;;;;;;9.20;8.00;;;20.30;64.70;;;;;;5028362;28;20497;-90
2022/08/27 07:41:09;;;;;;;14.00;8.70;;;20.30;64.60;;;;;;5008353;28;20017;-85
2022/08/27 07:46:23;;;;;;;10.65;8.90;;;20.40;64.60;;;;;;5021745;28;20697;-85
2022/08/27 07:48:49;;;;;;;10.25;9.13;;;20.60;64.80;;;;;;5011414;28;20021;-88
2022/08/27 07:51:19;;;;;;;11.55;8.82;;;20.60;64.60;;;;;;5039163;28;20065;-87
2022/08/27 07:53:45;;;;;;;10.52;9.40;;;20.70;64.60;;;;;;5035721;28;20105;-87
2022/08/27 07:56:12;;;;;;;9.77;8.80;;;20.70;64.50;;;;;;5033997;28;20048;-86
2022/08/27 07:58:39;;;;;;;9.88;8.88;;;20.70;64.40;;;;;;5012079;28;20094;-87
2022/08/27 08:01:05;;;;;;;10.05;9.02;;;20.80;64.50;;;;;;5026942;28;20036;-86
2022/08/27 08:03:33;;;;;;;12.65;10.02;;;20.80;64.30;;;;;;5026310;28;20087;-87
2022/08/27 08:06:08;;;;;;;11.07;8.13;;;20.90;64.40;;;;;;5027699;28;20043;-87
2022/08/27 08:08:35;;;;;;;8.50;7.70;;;21.00;64.40;;;;;;5028487;28;20448;-89
2022/08/27 08:11:02;;;;;;;10.52;9.10;;;21.10;64.40;;;;;;5025190;28;20042;-87
2022/08/27 08:13:30;;;;;;;10.93;9.48;;;21.20;64.40;;;;;;5027231;28;20109;-87
2022/08/27 08:15:57;;;;;;;11.65;10.02;;;21.20;64.20;;;;;;5028515;28;20029;-87
2022/08/27 08:18:27;;;;;;;10.05;8.65;;;21.30;64.20;;;;;;5005323;28;20045;-88
2022/08/27 08:21:00;;;;;;;9.88;8.85;;;21.40;64.20;;;;;;5017848;28;20048;-90
2022/08/27 08:23:26;;;;;;;10.52;9.45;;;21.50;64.10;;;;;;5021652;28;20033;-87
2022/08/27 08:25:53;;;;;;;10.48;9.45;;;21.60;64.00;;;;;;5019681;28;20033;-87
2022/08/27 08:28:20;;;;;;;10.23;9.30;;;21.70;64.00;;;;;;5008156;28;20043;-86
2022/08/27 08:30:46;;;;;;;12.43;8.98;;;21.80;64.00;;;;;;5003340;28;20017;-87
2022/08/27 08:33:13;;;;;;;11.48;10.27;;;21.90;63.90;;;;;;5017850;28;20033;-85
2022/08/27 08:35:40;;;;;;;13.18;10.05;;;22.00;64.00;;;;;;5006533;28;20109;-85
2022/08/27 08:38:06;;;;;;;13.48;10.38;;;22.10;63.90;;;;;;5039136;28;20037;-87
2022/08/27 08:40:41;;;;;;;10.70;9.70;;;22.20;63.80;;;;;;4993467;28;20029;-87
2022/08/27 08:43:21;;;;;;;12.15;9.80;;;22.30;64.30;;;;;;5027826;28;20037;-87
2022/08/27 08:45:47;;;;;;;10.75;9.65;;;22.40;63.70;;;;;;5025940;28;20460;-87
2022/08/27 08:48:22;;;;;;;11.45;9.60;;;22.50;63.60;;;;;;5023010;28;20053;-88
2022/08/27 08:51:02;;;;;;;12.55;9.57;;;22.60;63.50;;;;;;5025906;28;20029;-86
2022/08/27 08:53:43;;;;;;;14.10;10.15;;;22.70;63.50;;;;;;5010346;28;20395;-86
2022/08/27 08:56:20;;;;;;;12.68;10.30;;;22.70;63.30;;;;;;5025687;28;20545;-89
2022/08/27 08:59:06;;;;;;;11.20;8.88;;;22.90;63.30;;;;;;4995599;28;20445;-88
2022/08/27 09:01:34;;;;;;;11.93;10.23;;;23.00;63.20;;;;;;5026272;28;20094;-88
2022/08/27 09:04:03;;;;;;;14.32;11.60;;;23.10;63.20;;;;;;5025691;28;20283;-85
2022/08/27 09:06:57;;;;;;;11.38;10.27;;;23.20;63.10;;;;;;5025960;28;20030;-86
2022/08/27 09:09:45;;;;;;;12.05;9.73;;;23.20;62.80;;;;;;5026034;28;20148;-88
2022/08/27 09:12:21;;;;;;;10.65;9.63;;;23.30;62.90;;;;;;5009408;28;20037;-86
2022/08/27 09:14:53;;;;;;;12.75;10.05;;;23.30;62.80;;;;;;5025734;28;20389;-87
2022/08/27 09:17:20;;;;;;;12.43;10.63;;;23.40;62.80;;;;;;5010302;28;20041;-87
2022/08/27 09:19:46;;;;;;;12.13;10.10;;;23.40;62.80;;;;;;5008532;28;20407;-88
2022/08/27 09:22:38;;;;;;;10.93;9.82;;;23.60;62.80;;;;;;5025124;28;20049;-87
2022/08/27 09:25:04;;;;;;;11.15;9.98;;;23.70;62.60;;;;;;5023747;28;20087;-84
2022/08/27 09:27:33;;;;;;;10.95;9.80;;;23.80;62.60;;;;;;5024794;28;20037;-86
2022/08/27 09:30:08;;;;;;;12.52;11.25;;;23.80;62.30;;;;;;5028205;28;20139;-87
2022/08/27 09:32:34;;;;;;;11.05;9.73;;;23.90;62.30;;;;;;5024001;28;20386;-85
2022/08/27 09:35:08;;;;;;;14.75;10.50;;;23.90;62.20;;;;;;5026285;28;20022;-85
2022/08/27 09:37:46;;;;;;;10.90;9.88;;;23.90;62.20;;;;;;5025867;28;20510;-86
2022/08/27 09:40:21;;;;;;;11.35;10.15;;;23.90;62.10;;;;;;5010055;28;20037;-86
2022/08/27 09:42:52;;;;;;;10.63;9.55;;;23.90;62.20;;;;;;5025025;28;20372;-85
2022/08/27 09:45:27;;;;;;;10.80;9.57;;;23.80;62.60;;;;;;5025469;28;20356;-86
2022/08/27 09:48:06;;;;;;;10.55;9.45;;;23.80;62.10;;;;;;4992019;28;20076;-86
2022/08/27 09:50:38;;;;;;;12.75;9.93;;;23.80;62.20;;;;;;5009371;28;20105;-86
2022/08/27 09:53:20;;;;;;;10.33;9.27;;;23.70;62.00;;;;;;4992334;28;20389;-85
2022/08/27 09:55:52;;;;;;;10.43;9.23;;;23.60;61.90;;;;;;4992015;28;20077;-89
2022/08/27 09:58:22;;;;;;;10.97;9.27;;;23.60;62.00;;;;;;4988472;28;20068;-87
2022/08/27 10:01:05;;;;;;;11.82;10.02;;;23.50;61.90;;;;;;5023033;28;20034;-86
2022/08/27 10:03:31;;;;;;;11.30;10.10;;;23.50;62.00;;;;;;5006067;28;20119;-86
2022/08/27 10:05:57;;;;;;;9.45;8.02;;;23.50;62.00;;;;;;5025350;28;20270;-89
2022/08/27 10:08:27;;;;;;;10.02;8.48;;;23.40;61.90;;;;;;5027126;28;20041;-88
2022/08/27 10:10:58;;;;;;;10.93;8.80;;;23.40;61.90;;;;;;5025043;28;20202;-86
2022/08/27 10:13:39;;;;;;;12.18;9.18;;;23.40;62.00;;;;;;5024276;28;20642;-88
2022/08/27 10:16:32;;;;;;;9.30;8.30;;;23.40;61.90;;;;;;5018625;28;20021;-88
2022/08/27 10:19:30;;;;;;;8.93;8.00;;;23.40;61.90;;;;;;5024401;28;20030;-87
2022/08/27 10:22:25;;;;;;;9.98;7.63;;;23.40;61.90;;;;;;5021727;28;20350;-82
2022/08/27 10:25:22;;;;;;;11.55;9.63;;;23.40;61.90;;;;;;5026320;28;20033;-85
2022/08/27 10:28:15;;;;;;;9.70;8.65;;;23.40;61.90;;;;;;5026470;28;20048;-82
2022/08/27 10:31:02;;;;;;;9.93;8.77;;;23.40;61.90;;;;;;5024489;28;20025;-82
2022/08/27 10:33:58;;;;;;;7.53;6.82;;;23.40;61.90;;;;;;5022569;28;20435;-82
2022/08/27 10:36:25;;;;;;;10.18;8.38;;;23.40;61.80;;;;;;5008429;28;20036;-82
2022/08/27 10:39:15;;;;;;;10.25;9.18;;;23.50;62.00;;;;;;5025323;28;20502;-82
2022/08/27 10:41:48;;;;;;;10.10;9.10;;;23.50;61.90;;;;;;5024993;28;20111;-83
2022/08/27 10:44:25;;;;;;;11.95;9.95;;;23.50;61.80;;;;;;5007908;28;20021;-83
2022/08/27 10:47:25;;;;;;;11.18;9.57;;;23.60;61.90;;;;;;5017569;28;20103;-79
2022/08/27 10:50:10;;;;;;;9.63;8.70;;;23.60;61.80;;;;;;5022336;28;20067;-81
2022/08/27 10:52:50;;;;;;;9.43;8.43;;;23.70;62.00;;;;;;5007456;28;20032;-81
2022/08/27 10:55:25;;;;;;;10.55;8.52;;;23.70;61.80;;;;;;5006887;28;20384;-83
2022/08/27 10:58:15;;;;;;;10.70;8.45;;;23.80;62.00;;;;;;5024326;28;20022;-87
2022/08/27 11:01:08;;;;;;;10.50;9.48;;;23.80;61.90;;;;;;5024205;28;20510;-86
2022/08/27 11:03:37;;;;;;;10.37;9.47;;;23.80;61.80;;;;;;5022958;28;20106;-88
2022/08/27 11:06:30;;;;;;;10.48;8.63;;;23.90;62.00;;;;;;5007878;28;20315;-88
2022/08/27 11:09:20;;;;;;;10.43;9.40;;;24.00;62.20;;;;;;4997512;28;20041;-88
2022/08/27 11:11:54;;;;;;;10.63;9.50;;;24.10;62.30;;;;;;5003537;28;20119;-87
2022/08/27 11:14:46;;;;;;;11.50;10.40;;;24.10;62.20;;;;;;5006948;28;20033;-84
2022/08/27 11:17:23;;;;;;;11.05;9.65;;;24.10;62.10;;;;;;4984193;28;20158;-86
2022/08/27 11:20:00;;;;;;;9.52;8.60;;;24.20;62.10;;;;;;5025951;28;20029;-89
2022/08/27 11:22:34;;;;;;;10.00;9.05;;;24.40;62.40;;;;;;5005365;28;20030;-87
2022/08/27 11:25:06;;;;;;;10.90;9.80;;;24.40;62.30;;;;;;5006813;28;20032;-85
2022/08/27 11:27:33;;;;;;;10.10;8.98;;;24.50;62.30;;;;;;5024152;28;20030;-81
2022/08/27 11:30:08;;;;;;;14.80;9.25;;;24.60;62.30;;;;;;5028739;28;20033;-82
2022/08/27 11:32:33;;;;;;;11.10;9.05;;;24.70;62.40;;;;;;5024896;28;20114;-85
2022/08/27 11:35:12;;;;;;;11.57;10.35;;;24.70;62.30;;;;;;5025375;28;20033;-83
2022/08/27 11:38:10;;;;;;;17.00;11.10;;;24.80;62.40;;;;;;5023997;28;20042;-83
2022/08/27 11:40:54;;;;;;;12.15;10.85;;;25.00;62.80;;;;;;5023099;28;20033;-85
2022/08/27 11:43:25;;;;;;;17.17;13.07;;;25.10;62.80;;;;;;5037887;28;20036;-84
2022/08/27 11:45:56;;;;;;;16.40;13.82;;;25.10;62.60;;;;;;5024073;28;20018;-85
2022/08/27 11:48:34;;;;;;;19.02;12.10;;;25.20;62.70;;;;;;5021555;28;20068;-82
2022/08/27 11:51:05;;;;;;;12.90;11.35;;;25.30;62.80;;;;;;5025107;28;20091;-85
2022/08/27 11:53:53;;;;;;;14.57;11.98;;;25.30;62.80;;;;;;5024140;28;20037;-84
2022/08/27 11:56:35;;;;;;;12.73;9.82;;;25.40;62.70;;;;;;5006503;28;20022;-84
2022/08/27 11:59:31;;;;;;;11.50;9.43;;;25.50;62.40;;;;;;5026630;28;20028;-88
2022/08/27 12:02:24;;;;;;;11.18;9.02;;;25.60;62.10;;;;;;5044633;28;20258;-84
2022/08/27 12:04:54;;;;;;;8.50;7.78;;;25.60;61.80;;;;;;5045037;28;20111;-83
2022/08/27 12:07:23;;;;;;;11.68;8.50;;;25.70;61.70;;;;;;5013078;28;20056;-82
2022/08/27 12:09:56;;;;;;;8.88;7.93;;;25.80;61.40;;;;;;5029898;28;20041;-83
2022/08/27 12:12:40;;;;;;;10.75;7.22;;;25.90;61.10;;;;;;5027566;28;20037;-83
2022/08/27 12:15:24;;;;;;;8.35;7.43;;;25.90;60.90;;;;;;5046874;28;20063;-81
2022/08/27 12:18:21;;;;;;;9.75;7.57;;;26.00;60.50;;;;;;5039153;28;20064;-82
2022/08/27 12:21:02;;;;;;;9.45;7.63;;;26.10;60.20;;;;;;5022914;28;20101;-83
2022/08/27 12:23:45;;;;;;;9.07;7.07;;;26.10;60.70;;;;;;5007803;28;20033;-88
2022/08/27 12:26:32;;;;;;;;;;;26.20;60.10;;;;;;5020452;28;20032;-89
2022/08/27 12:29:28;;;;;;;8.15;6.68;;;26.30;60.20;;;;;;4996863;28;19917;-86
2022/08/27 12:32:24;;;;;;;7.97;6.72;;;26.40;59.90;;;;;;5006201;28;20143;-88
2022/08/27 12:35:27;;;;;;;6.82;6.22;;;26.40;59.50;;;;;;5024733;28;20033;-84
2022/08/27 12:38:05;;;;;;;6.50;5.85;;;26.30;59.20;;;;;;5027135;28;20033;-90
2022/08/27 12:41:02;;;;;;;7.45;5.60;;;26.20;59.40;;;;;;5026475;28;20060;-85
2022/08/27 12:43:33;;;;;;;7.00;5.93;;;26.00;58.50;;;;;;5025587;28;20034;-89
2022/08/27 12:46:01;;;;;;;8.88;6.78;;;25.90;58.70;;;;;;5008408;28;20026;-88
2022/08/27 12:48:30;;;;;;;7.38;6.63;;;25.90;58.40;;;;;;5027540;28;20049;-90
2022/08/27 12:51:00;;;;;;;9.10;5.72;;;25.90;58.10;;;;;;4988232;28;20049;-93
2022/08/27 12:53:34;;;;;;;6.13;5.53;;;26.00;57.90;;;;;;4996680;28;20365;-92
2022/08/27 12:56:12;;;;;;;5.93;5.30;;;26.00;57.80;;;;;;5009895;28;20078;-93
2022/08/27 12:58:57;;;;;;;6.35;4.53;;;26.10;57.50;;;;;;5029536;28;20040;-89
2022/08/27 13:01:42;;;;;;;5.22;3.83;;;26.20;57.20;;;;;;5025282;28;20112;-94
2022/08/27 13:04:23;;;;;;;5.05;3.70;;;26.30;57.10;;;;;;5011427;28;20183;-87
2022/08/27 13:06:50;;;;;;;5.20;3.60;;;26.30;56.70;;;;;;5024887;28;20025;-87
2022/08/27 13:09:23;;;;;;;7.78;3.92;;;26.50;56.70;;;;;;5028342;28;20400;-86
2022/08/27 13:11:55;;;;;;;5.88;4.18;;;26.60;56.40;;;;;;4993494;28;20435;-86
2022/08/27 13:14:23;;;;;;;4.55;4.03;;;26.80;56.10;;;;;;5024778;28;20408;-80